createdAt,value
2022-08-17T00:00:03.776Z,99301.63
2022-08-17T00:02:59.748Z,99301.69
2022-08-17T00:05:33.373Z,99294.72
2022-08-17T00:08:00.851Z,99295.62
2022-08-17T00:10:28.420Z,99293.91
2022-08-17T00:12:58.940Z,99285.22
2022-08-17T00:15:26.459Z,99300.19
2022-08-17T00:17:53.918Z,99288.69
2022-08-17T00:20:21.625Z,99287.91
2022-08-17T00:23:09.543Z,99282.56
2022-08-17T00:25:37.255Z,99291.47
2022-08-17T00:28:04.774Z,99301.13
2022-08-17T00:30:51.190Z,99294.88
2022-08-17T00:33:25.468Z,99298.44
2022-08-17T00:35:54.300Z,99289.78
2022-08-17T00:38:23.150Z,99290.72
2022-08-17T00:40:59.256Z,99294.16
2022-08-17T00:43:32.004Z,99295.09
2022-08-17T00:46:02.755Z,99293.38
2022-08-17T00:48:32.278Z,99298.63
2022-08-17T00:51:18.343Z,99303.03
2022-08-17T00:53:50.661Z,99297.78
2022-08-17T00:56:23.011Z,99295.16
2022-08-17T00:58:52.084Z,99301.31
2022-08-17T01:01:21.727Z,99299.50
2022-08-17T01:03:52.207Z,99311.81
2022-08-17T01:06:21.757Z,99303.91
2022-08-17T01:08:57.865Z,99298.63
2022-08-17T01:11:26.868Z,99307.41
2022-08-17T01:13:54.323Z,99304.75
2022-08-17T01:16:30.025Z,99312.59
2022-08-17T01:19:03.395Z,99321.44
2022-08-17T01:21:39.905Z,99317.94
2022-08-17T01:24:07.828Z,99319.69
2022-08-17T01:26:36.186Z,99309.88
2022-08-17T01:29:05.464Z,99313.22
2022-08-17T01:31:39.344Z,99315.31
2022-08-17T01:34:09.816Z,99320.78
2022-08-17T01:36:38.353Z,99323.37
2022-08-17T01:39:10.292Z,99320.28
2022-08-17T01:41:38.249Z,99325.59
2022-08-17T01:44:06.761Z,99322.53
2022-08-17T01:46:36.580Z,99323.50
2022-08-17T01:49:10.342Z,99318.00
2022-08-17T01:51:39.011Z,99318.28
2022-08-17T01:54:10.833Z,99321.16
2022-08-17T01:56:41.510Z,99321.06
2022-08-17T01:59:09.702Z,99323.22
2022-08-17T02:01:38.005Z,99328.47
2022-08-17T02:04:07.065Z,99318.84
2022-08-17T02:06:52.360Z,99330.69
2022-08-17T02:09:25.986Z,99321.16
2022-08-17T02:11:56.384Z,99321.16
2022-08-17T02:14:24.722Z,99320.13
2022-08-17T02:16:53.157Z,99319.84
2022-08-17T02:19:20.809Z,99312.78
2022-08-17T02:21:55.356Z,99308.94
2022-08-17T02:25:01.293Z,99308.41
2022-08-17T02:27:14.130Z,99303.78
2022-08-17T02:29:41.540Z,99303.66
2022-08-17T02:32:25.344Z,99313.41
2022-08-17T02:34:57.217Z,99311.59
2022-08-17T02:37:25.902Z,99319.50
2022-08-17T02:39:53.601Z,99328.44
2022-08-17T02:42:27.837Z,99321.53
2022-08-17T02:44:55.244Z,99319.78
2022-08-17T02:47:23.015Z,99314.56
2022-08-17T02:49:54.486Z,99318.06
2022-08-17T02:53:01.583Z,99318.97
2022-08-17T02:55:16.328Z,99314.56
2022-08-17T02:57:44.736Z,99325.03
2022-08-17T03:00:16.248Z,99317.16
2022-08-17T03:02:44.774Z,99319.81
2022-08-17T03:05:14.211Z,99318.91
2022-08-17T03:07:41.984Z,99320.69
2022-08-17T03:10:10.129Z,99330.34
2022-08-17T03:12:39.625Z,99325.06
2022-08-17T03:15:14.160Z,99321.53
2022-08-17T03:17:41.937Z,99328.56
2022-08-17T03:20:10.088Z,99327.72
2022-08-17T03:22:40.304Z,99326.81
2022-08-17T03:25:10.884Z,99327.72
2022-08-17T03:27:39.492Z,99326.84
2022-08-17T03:30:10.819Z,99325.00
2022-08-17T03:32:39.880Z,99326.78
2022-08-17T03:35:07.751Z,99321.53
2022-08-17T03:37:36.320Z,99328.50
2022-08-17T03:40:05.341Z,99330.31
2022-08-17T03:42:33.026Z,99332.03
2022-08-17T03:45:01.847Z,99330.31
2022-08-17T03:47:48.185Z,99336.47
2022-08-17T03:50:35.927Z,99335.59
2022-08-17T03:53:25.950Z,99340.84
2022-08-17T03:56:12.806Z,99339.97
2022-08-17T03:58:40.181Z,99342.59
2022-08-17T04:01:08.242Z,99349.59
2022-08-17T04:03:36.145Z,99346.97
2022-08-17T04:06:03.611Z,99346.97
2022-08-17T04:08:31.073Z,99344.34
2022-08-17T04:10:58.904Z,99341.72
2022-08-17T04:13:26.508Z,99347.84
2022-08-17T04:15:54.274Z,99353.13
2022-08-17T04:18:21.963Z,99361.88
2022-08-17T04:20:49.376Z,99357.50
2022-08-17T04:23:18.490Z,99356.59
2022-08-17T04:25:49.139Z,99354.81
2022-08-17T04:28:18.161Z,99361.84
2022-08-17T04:30:47.454Z,99358.38
2022-08-17T04:33:29.577Z,99357.50
2022-08-17T04:36:00.586Z,99358.34
2022-08-17T04:38:33.179Z,99361.84
2022-08-17T04:41:20.346Z,99366.22
2022-08-17T04:43:48.939Z,99368.81
2022-08-17T04:46:18.502Z,99370.56
2022-08-17T04:48:51.689Z,99370.28
2022-08-17T04:51:29.016Z,99365.56
2022-08-17T04:54:00.469Z,99370.41
2022-08-17T04:56:29.278Z,99372.06
2022-08-17T04:59:01.546Z,99373.09
2022-08-17T05:01:32.311Z,99374.69
2022-08-17T05:04:21.127Z,99378.03
2022-08-17T05:06:50.134Z,99378.31
2022-08-17T05:09:18.607Z,99378.50
2022-08-17T05:11:46.515Z,99380.53
2022-08-17T05:14:14.731Z,99389.22
2022-08-17T05:16:42.191Z,99396.16
2022-08-17T05:19:09.606Z,99394.59
2022-08-17T05:21:37.341Z,99392.81
2022-08-17T05:24:06.069Z,99386.16
2022-08-17T05:26:44.388Z,99380.88
2022-08-17T05:29:12.642Z,99390.41
2022-08-17T05:31:40.326Z,99382.84
2022-08-17T05:34:08.179Z,99393.31
2022-08-17T05:36:41.933Z,99386.06
2022-08-17T05:39:16.657Z,99388.34
2022-08-17T05:41:46.725Z,99393.84
2022-08-17T05:44:15.394Z,99391.13
2022-08-17T05:46:48.169Z,99388.59
2022-08-17T05:49:19.420Z,99393.50
2022-08-17T05:52:05.494Z,99396.06
2022-08-17T05:55:05.167Z,99389.09
2022-08-17T05:57:52.966Z,99391.16
2022-08-17T06:00:30.699Z,99394.56
2022-08-17T06:03:32.780Z,99393.88
2022-08-17T06:06:14.639Z,99397.09
2022-08-17T06:09:21.229Z,99396.78
2022-08-17T06:12:19.934Z,99393.88
2022-08-17T06:15:07.395Z,99398.78
2022-08-17T06:17:34.847Z,99401.94
2022-08-17T06:20:07.133Z,99399.13
2022-08-17T06:22:38.367Z,99397.41
2022-08-17T06:25:14.237Z,99396.34
2022-08-17T06:27:47.911Z,99385.41
2022-08-17T06:30:27.258Z,99391.81
2022-08-17T06:32:59.593Z,99401.31
2022-08-17T06:36:09.244Z,99396.75
2022-08-17T06:38:53.606Z,99388.72
2022-08-17T06:44:43.370Z,99401.13
2022-08-17T06:47:29.271Z,99406.87
2022-08-17T06:50:15.629Z,99414.16
2022-08-17T06:52:53.195Z,99415.91
2022-08-17T06:55:26.424Z,99420.25
2022-08-17T06:57:58.351Z,99411.19
2022-08-17T07:00:36.739Z,99409.38
2022-08-17T07:03:33.406Z,99404.69
2022-08-17T07:06:19.669Z,99411.34
2022-08-17T07:09:04.539Z,99410.47
2022-08-17T07:11:34.219Z,99413.91
2022-08-17T07:14:17.306Z,99406.59
2022-08-17T07:16:48.504Z,99408.00
2022-08-17T07:19:18.723Z,99405.78
2022-08-17T07:22:04.994Z,99398.91
2022-08-17T07:24:47.691Z,99398.94
2022-08-17T07:27:21.364Z,99403.31
2022-08-17T07:30:00.565Z,99399.56
2022-08-17T07:32:35.833Z,99403.97
2022-08-17T07:35:15.104Z,99398.16
2022-08-17T07:37:53.405Z,99400.47
2022-08-17T07:40:27.164Z,99406.47
2022-08-17T07:43:07.854Z,99402.75
2022-08-17T07:46:13.524Z,99395.16
2022-08-17T07:48:46.959Z,99392.94
2022-08-17T07:51:18.660Z,99389.53
2022-08-17T07:53:46.239Z,99390.34
2022-08-17T07:56:37.903Z,99384.88
2022-08-17T07:59:18.190Z,99391.03
2022-08-17T08:01:57.592Z,99389.78
2022-08-17T08:04:58.941Z,99392.28
2022-08-17T08:07:26.896Z,99389.03
2022-08-17T08:10:11.642Z,99391.37
2022-08-17T08:12:40.482Z,99385.66
2022-08-17T08:15:21.805Z,99384.66
2022-08-17T08:17:55.925Z,99389.00
2022-08-17T08:20:53.100Z,99385.63
2022-08-17T08:23:33.410Z,99382.84
2022-08-17T08:26:28.488Z,99386.00
2022-08-17T08:29:12.580Z,99384.97
2022-08-17T08:31:50.782Z,99383.91
2022-08-17T08:35:01.502Z,99381.78
2022-08-17T08:37:55.717Z,99383.41
2022-08-17T08:40:38.751Z,99387.03
2022-08-17T08:43:22.361Z,99381.28
2022-08-17T08:46:12.744Z,99384.31
2022-08-17T08:49:12.131Z,99374.59
2022-08-17T08:51:51.673Z,99378.81
2022-08-17T08:54:28.400Z,99375.69
2022-08-17T08:57:24.289Z,99370.03
2022-08-17T09:00:02.301Z,99375.22
2022-08-17T09:02:41.733Z,99389.34
2022-08-17T09:05:17.175Z,99384.41
2022-08-17T09:08:23.388Z,99382.38
2022-08-17T09:11:13.744Z,99375.81
2022-08-17T09:13:44.156Z,99385.06
2022-08-17T09:16:20.249Z,99391.19
2022-08-17T09:19:00.906Z,99388.91
2022-08-17T09:21:48.991Z,99392.00
2022-08-17T09:24:36.583Z,99391.91
2022-08-17T09:27:09.332Z,99380.69
2022-08-17T09:29:40.440Z,99389.66
2022-08-17T09:32:32.779Z,99387.09
2022-08-17T09:35:20.008Z,99397.03
2022-08-17T09:37:57.072Z,99384.19
2022-08-17T09:40:27.769Z,99389.28
2022-08-17T09:43:12.749Z,99379.59
2022-08-17T09:45:58.488Z,99388.72
2022-08-17T09:48:55.247Z,99372.09
2022-08-17T09:51:33.475Z,99369.75
2022-08-17T09:54:34.883Z,99382.69
2022-08-17T09:57:34.440Z,99376.22
2022-08-17T10:00:11.930Z,99370.91
2022-08-17T10:02:42.264Z,99378.03
2022-08-17T10:05:37.836Z,99376.75
2022-08-17T10:08:09.558Z,99375.47
2022-08-17T10:10:43.555Z,99379.50
2022-08-17T10:13:40.429Z,99371.59
2022-08-17T10:16:23.474Z,99377.56
2022-08-17T10:19:08.162Z,99384.97
2022-08-17T10:22:01.571Z,99379.56
2022-08-17T10:25:22.430Z,99375.91
2022-08-17T10:27:55.648Z,99385.47
2022-08-17T10:30:26.787Z,99370.88
2022-08-17T10:32:59.296Z,99364.50
2022-08-17T10:35:33.977Z,99363.59
2022-08-17T10:38:04.796Z,99368.53
2022-08-17T10:40:46.801Z,99372.81
2022-08-17T10:43:57.891Z,99370.41
2022-08-17T10:46:56.616Z,99373.91
2022-08-17T10:49:29.305Z,99366.03
2022-08-17T10:52:00.039Z,99371.25
2022-08-17T10:54:38.406Z,99366.84
2022-08-17T10:57:33.874Z,99362.28
2022-08-17T11:00:13.342Z,99363.56
2022-08-17T11:02:56.220Z,99352.56
2022-08-17T11:05:53.939Z,99352.63
2022-08-17T11:08:48.953Z,99361.03
2022-08-17T11:11:50.956Z,99359.38
2022-08-17T11:14:33.143Z,99358.34
2022-08-17T11:17:11.349Z,99353.69
2022-08-17T11:20:01.737Z,99362.41
2022-08-17T11:22:42.586Z,99357.66
2022-08-17T11:25:22.689Z,99349.62
2022-08-17T11:27:53.769Z,99341.50
2022-08-17T11:30:51.649Z,99339.94
2022-08-17T11:33:36.903Z,99344.31
2022-08-17T11:36:24.691Z,99333.75
2022-08-17T11:38:58.024Z,99340.69
2022-08-17T11:41:47.078Z,99336.09
2022-08-17T11:44:41.838Z,99333.19
2022-08-17T11:48:16.079Z,99333.00
2022-08-17T11:51:21.952Z,99331.56
2022-08-17T11:53:50.102Z,99320.91
2022-08-17T11:56:34.302Z,99324.69
2022-08-17T11:59:02.563Z,99325.00
2022-08-17T12:01:32.860Z,99320.47
2022-08-17T12:04:30.432Z,99321.09
2022-08-17T12:07:08.396Z,99317.88
2022-08-17T12:09:40.651Z,99319.47
2022-08-17T12:12:18.248Z,99313.16
2022-08-17T12:15:11.026Z,99300.84
2022-08-17T12:17:52.057Z,99301.38
2022-08-17T12:20:28.758Z,99302.13
2022-08-17T12:23:11.427Z,99293.66
2022-08-17T12:25:45.913Z,99288.75
2022-08-17T12:28:27.720Z,99291.28
2022-08-17T12:30:59.797Z,99290.72
2022-08-17T12:33:28.923Z,99291.63
2022-08-17T12:36:05.829Z,99279.97
2022-08-17T12:38:36.221Z,99288.12
2022-08-17T12:41:24.819Z,99295.81
2022-08-17T12:44:03.713Z,99289.31
2022-08-17T12:46:35.931Z,99290.09
2022-08-17T12:49:36.948Z,99288.97
2022-08-17T12:52:24.682Z,99281.12
2022-08-17T12:55:02.359Z,99281.62
2022-08-17T12:57:32.798Z,99289.94
2022-08-17T13:00:10.206Z,99295.88
2022-08-17T13:02:42.407Z,99287.97
2022-08-17T13:05:22.310Z,99293.09
2022-08-17T13:07:50.861Z,99281.06
2022-08-17T13:10:24.816Z,99292.19
2022-08-17T13:12:54.287Z,99290.78
2022-08-17T13:15:23.649Z,99282.09
2022-08-17T13:17:57.883Z,99283.47
2022-08-17T13:20:25.816Z,99273.81
2022-08-17T13:22:56.583Z,99277.22
2022-08-17T13:25:25.363Z,99277.06
2022-08-17T13:27:54.473Z,99275.50
2022-08-17T13:30:33.340Z,99269.03
2022-08-17T13:33:04.117Z,99272.50
2022-08-17T13:35:50.290Z,99270.59
2022-08-17T13:38:40.472Z,99268.16
2022-08-17T13:41:08.893Z,99275.72
2022-08-17T13:43:45.178Z,99258.72
2022-08-17T13:46:19.694Z,99271.22
2022-08-17T13:49:04.439Z,99269.03
2022-08-17T13:51:50.823Z,99267.13
2022-08-17T13:54:49.972Z,99276.47
2022-08-17T13:57:22.712Z,99276.69
2022-08-17T13:59:56.358Z,99276.69
2022-08-17T14:02:27.926Z,99269.72
2022-08-17T14:04:57.326Z,99272.13
2022-08-17T14:07:30.223Z,99266.12
2022-08-17T14:10:09.815Z,99265.34
2022-08-17T14:12:38.885Z,99265.66
2022-08-17T14:15:07.669Z,99269.53
2022-08-17T14:17:38.898Z,99262.81
2022-08-17T14:20:09.628Z,99262.88
2022-08-17T14:22:39.675Z,99261.69
2022-08-17T14:25:10.308Z,99267.16
2022-08-17T14:27:52.005Z,99259.94
2022-08-17T14:30:26.735Z,99259.31
2022-08-17T14:32:58.124Z,99256.44
2022-08-17T14:35:28.102Z,99255.50
2022-08-17T14:37:56.214Z,99255.91
2022-08-17T14:40:25.058Z,99252.31
2022-08-17T14:42:55.316Z,99252.19
2022-08-17T14:45:30.270Z,99246.66
2022-08-17T14:48:07.720Z,99254.34
2022-08-17T14:50:37.508Z,99258.34
2022-08-17T14:53:06.537Z,99254.66
2022-08-17T14:55:34.665Z,99255.53
2022-08-17T14:58:02.085Z,99248.13
2022-08-17T15:00:29.899Z,99254.34
2022-08-17T15:02:58.836Z,99245.84
2022-08-17T15:05:31.715Z,99248.00
2022-08-17T15:08:01.095Z,99242.28
2022-08-17T15:10:29.861Z,99249.25
2022-08-17T15:12:58.031Z,99241.69
2022-08-17T15:15:26.352Z,99253.16
2022-08-17T15:17:54.851Z,99242.38
2022-08-17T15:20:26.787Z,99242.50
2022-08-17T15:22:56.072Z,99241.47
2022-08-17T15:25:25.433Z,99245.38
2022-08-17T15:27:53.763Z,99265.03
2022-08-17T15:30:25.802Z,99248.50
2022-08-17T15:32:55.232Z,99254.66
2022-08-17T15:35:30.814Z,99247.84
2022-08-17T15:38:10.676Z,99251.34
2022-08-17T15:40:42.588Z,99252.03
2022-08-17T15:43:16.173Z,99254.84
2022-08-17T15:45:43.732Z,99249.03
2022-08-17T15:48:11.578Z,99259.63
2022-08-17T15:50:38.975Z,99245.66
2022-08-17T15:53:06.714Z,99244.38
2022-08-17T15:55:35.108Z,99252.03
2022-08-17T15:58:02.561Z,99243.16
2022-08-17T16:00:30.690Z,99244.28
2022-08-17T16:03:46.742Z,99246.22
2022-08-17T16:05:51.330Z,99250.53
2022-08-17T16:08:21.273Z,99255.72
2022-08-17T16:10:50.140Z,99247.09
2022-08-17T16:13:19.038Z,99253.81
2022-08-17T16:15:57.106Z,99251.09
2022-08-17T16:18:31.131Z,99247.66
2022-08-17T16:21:20.213Z,99245.19
2022-08-17T16:23:49.270Z,99250.69
2022-08-17T16:26:18.451Z,99251.53
2022-08-17T16:28:46.650Z,99251.59
2022-08-17T16:31:14.609Z,99237.78
2022-08-17T16:33:42.509Z,99237.19
2022-08-17T16:36:31.158Z,99236.06
2022-08-17T16:38:59.457Z,99239.56
2022-08-17T16:41:45.348Z,99239.56
2022-08-17T16:44:15.583Z,99237.31
2022-08-17T16:46:45.572Z,99237.16
2022-08-17T16:49:34.462Z,99233.88
2022-08-17T16:52:03.405Z,99239.31
2022-08-17T16:54:31.329Z,99240.34
2022-08-17T16:56:58.870Z,99241.94
2022-08-17T16:59:38.867Z,99242.12
2022-08-17T17:02:11.505Z,99242.22
2022-08-17T17:05:02.996Z,99246.63
2022-08-17T17:07:55.455Z,99247.41
2022-08-17T17:10:26.245Z,99239.84
2022-08-17T17:13:02.807Z,99247.72
2022-08-17T17:15:47.578Z,99248.44
2022-08-17T17:18:15.898Z,99253.09
2022-08-17T17:20:49.912Z,99249.56
2022-08-17T17:23:38.201Z,99256.56
2022-08-17T17:26:20.258Z,99256.97
2022-08-17T17:29:07.993Z,99261.41
2022-08-17T17:31:57.205Z,99265.34
2022-08-17T17:34:26.096Z,99263.91
2022-08-17T17:36:56.861Z,99262.41
2022-08-17T17:39:37.055Z,99267.13
2022-08-17T17:42:10.095Z,99266.91
2022-08-17T17:44:42.490Z,99269.97
2022-08-17T17:47:12.780Z,99278.47
2022-08-17T17:49:43.922Z,99282.09
2022-08-17T17:52:19.647Z,99283.19
2022-08-17T17:54:56.245Z,99286.69
2022-08-17T17:57:55.837Z,99284.59
2022-08-17T18:00:24.608Z,99293.34
2022-08-17T18:03:04.300Z,99295.41
2022-08-17T18:05:37.384Z,99299.72
2022-08-17T18:08:34.698Z,99303.88
2022-08-17T18:11:24.682Z,99305.78
2022-08-17T18:14:01.929Z,99308.28
2022-08-17T18:16:32.819Z,99310.47
2022-08-17T18:19:01.121Z,99313.66
2022-08-17T18:21:37.798Z,99312.81
2022-08-17T18:24:08.069Z,99311.88
2022-08-17T18:26:39.526Z,99331.47
2022-08-17T18:29:21.765Z,99334.00
2022-08-17T18:31:52.522Z,99330.69
2022-08-17T18:37:29.706Z,99333.28
2022-08-17T18:39:57.569Z,99335.97
2022-08-17T18:42:27.239Z,99343.19
2022-08-17T18:44:55.782Z,99335.94
2022-08-17T18:47:28.922Z,99342.28
2022-08-17T18:50:00.502Z,99335.81
2022-08-17T18:52:31.282Z,99337.47
2022-08-17T18:55:09.023Z,99340.44
2022-08-17T18:57:43.635Z,99346.88
2022-08-17T19:00:16.650Z,99343.00
2022-08-17T19:02:56.387Z,99344.34
2022-08-17T19:05:34.944Z,99336.91
2022-08-17T19:08:33.780Z,99353.34
2022-08-17T19:11:05.643Z,99352.28
2022-08-17T19:13:55.358Z,99353.22
2022-08-17T19:16:28.699Z,99353.72
2022-08-17T19:19:05.253Z,99364.88
2022-08-17T19:21:40.347Z,99355.13
2022-08-17T19:24:19.614Z,99355.84
2022-08-17T19:27:13.895Z,99352.75
2022-08-17T19:29:47.247Z,99363.44
2022-08-17T19:32:17.418Z,99352.19
2022-08-17T19:34:45.370Z,99351.00
2022-08-17T19:37:38.073Z,99368.22
2022-08-17T19:40:52.376Z,99365.62
2022-08-17T19:43:43.345Z,99361.69
2022-08-17T19:46:35.812Z,99358.47
2022-08-17T19:49:41.688Z,99364.56
2022-08-17T19:52:31.602Z,99357.00
2022-08-17T19:55:18.270Z,99362.69
2022-08-17T19:58:07.891Z,99367.81
2022-08-17T20:00:41.315Z,99359.97
2022-08-17T20:03:16.732Z,99362.22
2022-08-17T20:06:11.595Z,99357.88
2022-08-17T20:08:41.237Z,99349.56
2022-08-17T20:11:20.675Z,99361.37
2022-08-17T20:13:59.552Z,99361.63
2022-08-17T20:16:27.192Z,99351.00
2022-08-17T20:19:27.334Z,99357.44
2022-08-17T20:22:11.658Z,99358.91
2022-08-17T20:24:52.665Z,99353.37
2022-08-17T20:27:52.887Z,99360.25
2022-08-17T20:30:24.213Z,99358.59
2022-08-17T20:32:55.593Z,99356.75
2022-08-17T20:35:32.849Z,99355.25
2022-08-17T20:38:02.246Z,99351.06
2022-08-17T20:40:36.826Z,99352.19
2022-08-17T20:43:34.749Z,99353.66
2022-08-17T20:46:24.223Z,99355.25
2022-08-17T20:48:55.288Z,99350.12
2022-08-17T20:51:38.617Z,99352.91
2022-08-17T20:54:08.173Z,99348.69
2022-08-17T20:56:44.904Z,99353.69
2022-08-17T20:59:22.894Z,99347.81
2022-08-17T21:02:17.733Z,99343.53
2022-08-17T21:04:54.516Z,99357.28
2022-08-17T21:07:43.558Z,99358.78
2022-08-17T21:10:21.754Z,99357.66
2022-08-17T21:13:04.626Z,99362.88
2022-08-17T21:16:09.495Z,99360.91
2022-08-17T21:19:02.487Z,99357.72
2022-08-17T21:21:43.419Z,99353.37
2022-08-17T21:24:26.628Z,99349.88
2022-08-17T21:27:48.611Z,99357.91
2022-08-17T21:30:38.627Z,99365.94
2022-08-17T21:33:16.132Z,99367.13
2022-08-17T21:35:53.918Z,99364.59
2022-08-17T21:38:55.685Z,99374.53
2022-08-17T21:41:35.500Z,99363.88
2022-08-17T21:44:11.270Z,99367.53
2022-08-17T21:46:46.469Z,99369.44
2022-08-17T21:49:17.855Z,99369.41
2022-08-17T21:51:50.008Z,99369.31
2022-08-17T21:54:22.221Z,99369.56
2022-08-17T21:56:50.257Z,99374.06
2022-08-17T21:59:26.132Z,99375.59
2022-08-17T22:02:02.553Z,99383.09
2022-08-17T22:04:35.977Z,99384.06
2022-08-17T22:07:06.048Z,99389.81
2022-08-17T22:09:41.621Z,99392.31
2022-08-17T22:12:19.646Z,99392.63
2022-08-17T22:15:01.282Z,99387.31
2022-08-17T22:17:28.995Z,99400.63
2022-08-17T22:20:04.857Z,99412.19
2022-08-17T22:22:55.952Z,99401.59
2022-08-17T22:25:24.767Z,99415.66
2022-08-17T22:27:58.215Z,99407.00
2022-08-17T22:30:29.810Z,99407.09
2022-08-17T22:33:01.105Z,99413.13
2022-08-17T22:35:42.109Z,99413.84
2022-08-17T22:38:20.064Z,99413.00
2022-08-17T22:40:56.652Z,99411.12
2022-08-17T22:43:29.219Z,99416.25
2022-08-17T22:45:59.816Z,99418.34
2022-08-17T22:48:30.942Z,99420.09
2022-08-17T22:51:12.743Z,99422.13
2022-08-17T22:54:16.656Z,99426.75
2022-08-17T22:57:10.628Z,99420.47
2022-08-17T22:59:41.905Z,99421.53
2022-08-17T23:02:14.780Z,99431.25
2022-08-17T23:04:49.140Z,99426.84
2022-08-17T23:07:17.648Z,99433.84
2022-08-17T23:09:45.593Z,99437.63
2022-08-17T23:12:21.515Z,99435.84
2022-08-17T23:14:51.449Z,99441.12
2022-08-17T23:17:18.821Z,99448.88
2022-08-17T23:19:46.260Z,99445.97
2022-08-17T23:22:14.044Z,99449.97
2022-08-17T23:24:48.850Z,99453.97
2022-08-17T23:27:17.574Z,99457.34
2022-08-17T23:29:45.222Z,99465.63
2022-08-17T23:32:14.658Z,99454.06
2022-08-17T23:34:43.793Z,99454.91
2022-08-17T23:37:11.853Z,99440.47
2022-08-17T23:39:39.793Z,99443.13
2022-08-17T23:42:09.246Z,99437.47
2022-08-17T23:44:38.008Z,99441.66
2022-08-17T23:47:06.455Z,99435.91
2022-08-17T23:49:36.150Z,99424.31
2022-08-17T23:52:07.912Z,99422.25
2022-08-17T23:54:41.565Z,99434.78
2022-08-17T23:57:13.384Z,99435.97
2022-08-17T23:59:43.823Z,99432.78
